sensor_id;sensor_type;location;lat;lon;timestamp;pressure;altitude;pressure_sealevel;temperature;humidity
21588;BME280;10956;48.878;13.316;2023-03-04T00:00:36;94382.81;;;1.31;100.00
21588;BME280;10956;48.878;13.316;2023-03-04T00:03:01;94386.41;;;1.29;100.00
21588;BME280;10956;48.878;13.316;2023-03-04T00:05:27;94386.00;;;1.26;100.00
21588;BME280;10956;48.878;13.316;2023-03-04T00:07:52;94384.03;;;1.21;100.00
21588;BME280;10956;48.878;13.316;2023-03-04T00:10:18;94386.81;;;1.20;100.00
21588;BME280;10956;48.878;13.316;2023-03-04T00:12:43;94383.63;;;1.18;100.00
21588;BME280;10956;48.878;13.316;2023-03-04T00:15:09;94378.44;;;1.18;100.00
21588;BME280;10956;48.878;13.316;2023-03-04T00:17:34;94383.63;;;1.18;100.00
21588;BME280;10956;48.878;13.316;2023-03-04T00:20:00;94378.44;;;1.18;100.00
21588;BME280;10956;48.878;13.316;2023-03-04T00:22:25;94378.84;;;1.15;100.00
21588;BME280;10956;48.878;13.316;2023-03-04T00:24:50;94377.66;;;1.11;100.00
21588;BME280;10956;48.878;13.316;2023-03-04T00:27:16;94378.06;;;1.08;100.00
21588;BME280;10956;48.878;13.316;2023-03-04T00:29:41;94378.25;;;1.06;100.00
21588;BME280;10956;48.878;13.316;2023-03-04T00:32:06;94385.44;;;1.04;100.00
21588;BME280;10956;48.878;13.316;2023-03-04T00:34:32;94380.47;;;1.03;100.00
21588;BME280;10956;48.878;13.316;2023-03-04T00:36:57;94388.06;;;0.98;100.00
21588;BME280;10956;48.878;13.316;2023-03-04T00:39:28;94381.69;;;0.93;100.00
21588;BME280;10956;48.878;13.316;2023-03-04T00:41:54;94377.88;;;0.89;100.00
21588;BME280;10956;48.878;13.316;2023-03-04T00:44:19;94380.88;;;0.86;100.00
21588;BME280;10956;48.878;13.316;2023-03-04T00:46:44;94380.88;;;0.86;100.00
21588;BME280;10956;48.878;13.316;2023-03-04T00:49:10;94377.69;;;0.84;100.00
21588;BME280;10956;48.878;13.316;2023-03-04T00:51:35;94372.09;;;0.87;100.00
21588;BME280;10956;48.878;13.316;2023-03-04T00:54:01;94375.69;;;0.86;100.00
21588;BME280;10956;48.878;13.316;2023-03-04T00:56:27;94372.50;;;0.84;100.00
21588;BME280;10956;48.878;13.316;2023-03-04T00:58:52;94365.72;;;0.83;100.00
21588;BME280;10956;48.878;13.316;2023-03-04T01:01:18;94373.91;;;0.80;100.00
21588;BME280;10956;48.878;13.316;2023-03-04T01:03:43;94369.53;;;0.74;100.00
21588;BME280;10956;48.878;13.316;2023-03-04T01:06:09;94368.72;;;0.67;100.00
21588;BME280;10956;48.878;13.316;2023-03-04T01:08:35;94354.97;;;0.60;100.00
21588;BME280;10956;48.878;13.316;2023-03-04T01:11:01;94365.75;;;0.57;100.00
21588;BME280;10956;48.878;13.316;2023-03-04T01:13:26;94355.75;;;0.54;100.00
21588;BME280;10956;48.878;13.316;2023-03-04T01:15:52;94357.75;;;0.52;100.00
21588;BME280;10956;48.878;13.316;2023-03-04T01:18:17;94354.16;;;0.53;100.00
21588;BME280;10956;48.878;13.316;2023-03-04T01:20:43;94350.38;;;0.49;100.00
21588;BME280;10956;48.878;13.316;2023-03-04T01:23:08;94352.56;;;0.45;100.00
21588;BME280;10956;48.878;13.316;2023-03-04T01:25:33;94349.78;;;0.47;100.00
21588;BME280;10956;48.878;13.316;2023-03-04T01:27:59;94344.19;;;0.50;100.00
21588;BME280;10956;48.878;13.316;2023-03-04T01:30:24;94347.78;;;0.49;100.00
21588;BME280;10956;48.878;13.316;2023-03-04T01:32:50;94345.00;;;0.50;100.00
21588;BME280;10956;48.878;13.316;2023-03-04T01:35:15;94341.59;;;0.50;100.00
21588;BME280;10956;48.878;13.316;2023-03-04T01:37:40;94342.00;;;0.47;100.00
21588;BME280;10956;48.878;13.316;2023-03-04T01:40:07;94342.19;;;0.39;100.00
21588;BME280;10956;48.878;13.316;2023-03-04T01:42:33;94342.59;;;0.36;100.00
21588;BME280;10956;48.878;13.316;2023-03-04T01:45:00;94341.41;;;0.31;100.00
21588;BME280;10956;48.878;13.316;2023-03-04T01:47:27;94339.81;;;0.30;100.00
21588;BME280;10956;48.878;13.316;2023-03-04T01:49:55;94337.81;;;0.32;100.00
21588;BME280;10956;48.878;13.316;2023-03-04T01:52:21;94337.00;;;0.32;100.00
21588;BME280;10956;48.878;13.316;2023-03-04T01:54:47;94335.81;;;0.35;100.00
21588;BME280;10956;48.878;13.316;2023-03-04T01:57:18;94317.88;;;0.40;100.00
21588;BME280;10956;48.878;13.316;2023-03-04T01:59:44;94326.66;;;0.39;100.00
21588;BME280;10956;48.878;13.316;2023-03-04T02:02:11;94334.22;;;0.34;100.00
21588;BME280;10956;48.878;13.316;2023-03-04T02:04:38;94325.84;;;0.31;100.00
21588;BME280;10956;48.878;13.316;2023-03-04T02:07:05;94326.44;;;0.34;100.00
21588;BME280;10956;48.878;13.316;2023-03-04T02:09:31;94327.03;;;0.36;100.00
21588;BME280;10956;48.878;13.316;2023-03-04T02:11:57;94318.47;;;0.28;100.00
21588;BME280;10956;48.878;13.316;2023-03-04T02:14:23;94321.66;;;0.24;100.00
21588;BME280;10956;48.878;13.316;2023-03-04T02:16:49;94322.66;;;0.23;100.00
21588;BME280;10956;48.878;13.316;2023-03-04T02:21:49;94310.28;;;0.18;100.00
21588;BME280;10956;48.878;13.316;2023-03-04T02:24:20;94314.69;;;0.18;100.00
21588;BME280;10956;48.878;13.316;2023-03-04T02:26:48;94315.47;;;0.12;100.00
21588;BME280;10956;48.878;13.316;2023-03-04T02:29:15;94313.47;;;0.07;100.00
21588;BME280;10956;48.878;13.316;2023-03-04T02:31:46;94324.22;;;0.04;100.00
21588;BME280;10956;48.878;13.316;2023-03-04T02:34:15;94315.88;;;0.02;100.00
21588;BME280;10956;48.878;13.316;2023-03-04T02:36:42;94313.47;;;0.01;100.00
21588;BME280;10956;48.878;13.316;2023-03-04T02:39:20;94314.66;;;-0.02;100.00
21588;BME280;10956;48.878;13.316;2023-03-04T02:41:47;94306.28;;;-0.04;100.00
21588;BME280;10956;48.878;13.316;2023-03-04T02:44:19;94307.88;;;-0.10;100.00
21588;BME280;10956;48.878;13.316;2023-03-04T02:46:45;94301.69;;;-0.15;100.00
21588;BME280;10956;48.878;13.316;2023-03-04T02:49:12;94313.44;;;-0.19;100.00
21588;BME280;10956;48.878;13.316;2023-03-04T02:51:37;94312.63;;;-0.26;100.00
21588;BME280;10956;48.878;13.316;2023-03-04T02:54:03;94309.44;;;-0.28;100.00
21588;BME280;10956;48.878;13.316;2023-03-04T02:56:28;94305.06;;;-0.28;100.00
21588;BME280;10956;48.878;13.316;2023-03-04T02:58:54;94303.88;;;-0.25;100.00
21588;BME280;10956;48.878;13.316;2023-03-04T03:01:19;94305.25;;;-0.29;100.00
21588;BME280;10956;48.878;13.316;2023-03-04T03:03:44;94302.25;;;-0.33;100.00
21588;BME280;10956;48.878;13.316;2023-03-04T03:06:10;94301.84;;;-0.37;100.00
21588;BME280;10956;48.878;13.316;2023-03-04T03:08:35;94293.66;;;-0.40;100.00
21588;BME280;10956;48.878;13.316;2023-03-04T03:11:01;94291.09;;;-0.40;100.00
21588;BME280;10956;48.878;13.316;2023-03-04T03:13:26;94298.25;;;-0.42;100.00
21588;BME280;10956;48.878;13.316;2023-03-04T03:15:53;94288.31;;;-0.39;100.00
21588;BME280;10956;48.878;13.316;2023-03-04T03:18:19;94289.50;;;-0.35;100.00
21588;BME280;10956;48.878;13.316;2023-03-04T03:20:44;94294.28;;;-0.31;100.00
21588;BME280;10956;48.878;13.316;2023-03-04T03:23:10;94291.50;;;-0.37;100.00
21588;BME280;10956;48.878;13.316;2023-03-04T03:25:35;94289.69;;;-0.43;100.00
21588;BME280;10956;48.878;13.316;2023-03-04T03:28:01;94289.09;;;-0.45;100.00
21588;BME280;10956;48.878;13.316;2023-03-04T03:30:26;94287.50;;;-0.46;100.00
21588;BME280;10956;48.878;13.316;2023-03-04T03:32:52;94289.88;;;-0.44;100.00
21588;BME280;10956;48.878;13.316;2023-03-04T03:35:17;94294.66;;;-0.48;100.00
21588;BME280;10956;48.878;13.316;2023-03-04T03:37:43;94299.81;;;-0.48;100.00
21588;BME280;10956;48.878;13.316;2023-03-04T03:40:09;94291.88;;;-0.46;100.00
21588;BME280;10956;48.878;13.316;2023-03-04T03:42:34;94291.06;;;-0.47;100.00
21588;BME280;10956;48.878;13.316;2023-03-04T03:45:00;94284.69;;;-0.51;100.00
21588;BME280;10956;48.878;13.316;2023-03-04T03:47:25;94289.47;;;-0.48;100.00
21588;BME280;10956;48.878;13.316;2023-03-04T03:49:50;94292.44;;;-0.51;100.00
21588;BME280;10956;48.878;13.316;2023-03-04T03:52:16;94289.25;;;-0.53;100.00
21588;BME280;10956;48.878;13.316;2023-03-04T03:54:41;94289.47;;;-0.54;100.00
21588;BME280;10956;48.878;13.316;2023-03-04T03:57:07;94284.88;;;-0.59;100.00
21588;BME280;10956;48.878;13.316;2023-03-04T03:59:33;94293.41;;;-0.65;100.00
21588;BME280;10956;48.878;13.316;2023-03-04T04:01:58;94289.41;;;-0.68;100.00
21588;BME280;10956;48.878;13.316;2023-03-04T04:04:24;94295.38;;;-0.67;100.00
21588;BME280;10956;48.878;13.316;2023-03-04T04:06:50;94283.44;;;-0.68;100.00
21588;BME280;10956;48.878;13.316;2023-03-04T04:09:15;94288.63;;;-0.68;100.00
21588;BME280;10956;48.878;13.316;2023-03-04T04:11:41;94297.38;;;-0.69;100.00
21588;BME280;10956;48.878;13.316;2023-03-04T04:14:08;94290.59;;;-0.70;100.00
21588;BME280;10956;48.878;13.316;2023-03-04T04:16:34;94296.16;;;-0.73;100.00
21588;BME280;10956;48.878;13.316;2023-03-04T04:18:59;94285.22;;;-0.75;100.00
21588;BME280;10956;48.878;13.316;2023-03-04T04:21:25;94293.34;;;-0.78;100.00
21588;BME280;10956;48.878;13.316;2023-03-04T04:23:50;94292.75;;;-0.80;100.00
21588;BME280;10956;48.878;13.316;2023-03-04T04:26:15;94294.13;;;-0.84;100.00
21588;BME280;10956;48.878;13.316;2023-03-04T04:28:41;94294.13;;;-0.84;100.00
21588;BME280;10956;48.878;13.316;2023-03-04T04:31:07;94302.88;;;-0.85;100.00
21588;BME280;10956;48.878;13.316;2023-03-04T04:33:33;94292.91;;;-0.88;100.00
21588;BME280;10956;48.878;13.316;2023-03-04T04:35:59;94292.91;;;-0.88;100.00
21588;BME280;10956;48.878;13.316;2023-03-04T04:38:25;94292.91;;;-0.88;100.00
21588;BME280;10956;48.878;13.316;2023-03-04T04:40:51;94292.91;;;-0.88;100.00
21588;BME280;10956;48.878;13.316;2023-03-04T04:43:16;94299.69;;;-0.87;100.00
21588;BME280;10956;48.878;13.316;2023-03-04T04:45:41;94288.72;;;-0.89;100.00
21588;BME280;10956;48.878;13.316;2023-03-04T04:48:07;94291.31;;;-0.89;100.00
21588;BME280;10956;48.878;13.316;2023-03-04T04:50:33;94286.94;;;-0.89;100.00
21588;BME280;10956;48.878;13.316;2023-03-04T04:52:58;94287.75;;;-0.88;100.00
21588;BME280;10956;48.878;13.316;2023-03-04T04:55:24;94283.75;;;-0.91;100.00
21588;BME280;10956;48.878;13.316;2023-03-04T04:57:49;94281.97;;;-0.90;100.00
21588;BME280;10956;48.878;13.316;2023-03-04T05:00:15;94285.53;;;-0.91;100.00
21588;BME280;10956;48.878;13.316;2023-03-04T05:02:43;94275.19;;;-0.91;100.00
21588;BME280;10956;48.878;13.316;2023-03-04T05:05:08;94284.13;;;-0.94;100.00
21588;BME280;10956;48.878;13.316;2023-03-04T05:07:34;94282.72;;;-0.96;100.00
21588;BME280;10956;48.878;13.316;2023-03-04T05:10:00;94281.34;;;-0.99;100.00
21588;BME280;10956;48.878;13.316;2023-03-04T05:12:25;94287.69;;;-1.02;100.00
21588;BME280;10956;48.878;13.316;2023-03-04T05:14:50;94281.91;;;-1.04;100.00
21588;BME280;10956;48.878;13.316;2023-03-04T05:17:16;94283.28;;;-1.08;100.00
21588;BME280;10956;48.878;13.316;2023-03-04T05:19:41;94279.28;;;-1.10;100.00
21588;BME280;10956;48.878;13.316;2023-03-04T05:22:06;94284.06;;;-1.14;100.00
21588;BME280;10956;48.878;13.316;2023-03-04T05:24:32;94280.84;;;-1.16;100.00
21588;BME280;10956;48.878;13.316;2023-03-04T05:26:59;94281.66;;;-1.15;100.00
21588;BME280;10956;48.878;13.316;2023-03-04T05:29:24;94287.63;;;-1.15;100.00
21588;BME280;10956;48.878;13.316;2023-03-04T05:31:50;94292.78;;;-1.15;100.00
21588;BME280;10956;48.878;13.316;2023-03-04T05:34:15;94293.41;;;-1.13;100.00
21588;BME280;10956;48.878;13.316;2023-03-04T05:36:41;94287.63;;;-1.15;100.00
21588;BME280;10956;48.878;13.316;2023-03-04T05:39:06;94289.81;;;-1.12;100.00
21588;BME280;10956;48.878;13.316;2023-03-04T05:41:31;94288.47;;;-1.08;100.00
21588;BME280;10956;48.878;13.316;2023-03-04T05:43:57;94281.09;;;-1.11;100.00
21588;BME280;10956;48.878;13.316;2023-03-04T05:46:22;94279.28;;;-1.10;100.00
21588;BME280;10956;48.878;13.316;2023-03-04T05:48:52;94293.63;;;-1.08;100.00
21588;BME280;10956;48.878;13.316;2023-03-04T05:51:18;94297.22;;;-1.09;100.00
21588;BME280;10956;48.878;13.316;2023-03-04T05:53:44;94294.41;;;-1.14;100.00
21588;BME280;10956;48.878;13.316;2023-03-04T05:56:12;94292.00;;;-1.15;100.00
21588;BME280;10956;48.878;13.316;2023-03-04T05:58:38;94285.03;;;-1.15;100.00
21588;BME280;10956;48.878;13.316;2023-03-04T06:01:04;94295.38;;;-1.15;100.00
21588;BME280;10956;48.878;13.316;2023-03-04T06:03:29;94296.00;;;-1.13;100.00
21588;BME280;10956;48.878;13.316;2023-03-04T06:05:55;94298.81;;;-1.08;100.00
21588;BME280;10956;48.878;13.316;2023-03-04T06:08:20;94290.06;;;-1.07;100.00
21588;BME280;10956;48.878;13.316;2023-03-04T06:10:46;94295.84;;;-1.05;100.00
21588;BME280;10956;48.878;13.316;2023-03-04T06:13:11;94295.63;;;-1.03;100.00
21588;BME280;10956;48.878;13.316;2023-03-04T06:15:38;94301.22;;;-1.00;100.00
21588;BME280;10956;48.878;13.316;2023-03-04T06:18:04;94299.25;;;-0.98;100.00
21588;BME280;10956;48.878;13.316;2023-03-04T06:20:30;94307.22;;;-0.92;100.00
21588;BME280;10956;48.878;13.316;2023-03-04T06:22:55;94314.59;;;-0.89;100.00
21588;BME280;10956;48.878;13.316;2023-03-04T06:25:21;94321.00;;;-0.85;100.00
21588;BME280;10956;48.878;13.316;2023-03-04T06:27:46;94326.38;;;-0.80;100.00
21588;BME280;10956;48.878;13.316;2023-03-04T06:30:12;94325.00;;;-0.76;100.00
21588;BME280;10956;48.878;13.316;2023-03-04T06:32:37;94320.44;;;-0.74;100.00
21588;BME280;10956;48.878;13.316;2023-03-04T06:35:03;94322.66;;;-0.71;100.00
21588;BME280;10956;48.878;13.316;2023-03-04T06:37:28;94327.25;;;-0.67;100.00
21588;BME280;10956;48.878;13.316;2023-03-04T06:39:54;94341.59;;;-0.64;100.00
21588;BME280;10956;48.878;13.316;2023-03-04T06:42:20;94339.59;;;-0.62;100.00
21588;BME280;10956;48.878;13.316;2023-03-04T06:44:47;94336.03;;;-0.61;100.00
21588;BME280;10956;48.878;13.316;2023-03-04T06:47:13;94339.22;;;-0.59;100.00
21588;BME280;10956;48.878;13.316;2023-03-04T06:49:39;94342.03;;;-0.54;100.00
21588;BME280;10956;48.878;13.316;2023-03-04T06:52:04;94343.22;;;-0.50;100.00
21588;BME280;10956;48.878;13.316;2023-03-04T06:54:30;94346.84;;;-0.44;100.00
21588;BME280;10956;48.878;13.316;2023-03-04T06:56:55;94348.84;;;-0.40;100.00
21588;BME280;10956;48.878;13.316;2023-03-04T06:59:21;94342.88;;;-0.34;100.00
21588;BME280;10956;48.878;13.316;2023-03-04T07:01:46;94342.50;;;-0.30;100.00
21588;BME280;10956;48.878;13.316;2023-03-04T07:04:12;94347.47;;;-0.29;100.00
21588;BME280;10956;48.878;13.316;2023-03-04T07:06:38;94348.88;;;-0.26;100.00
21588;BME280;10956;48.878;13.316;2023-03-04T07:09:03;94339.31;;;-0.26;100.00
21588;BME280;10956;48.878;13.316;2023-03-04T07:11:29;94347.88;;;-0.25;100.00
21588;BME280;10956;48.878;13.316;2023-03-04T07:13:54;94344.69;;;-0.27;100.00
21588;BME280;10956;48.878;13.316;2023-03-04T07:16:21;94350.88;;;-0.28;100.00
21588;BME280;10956;48.878;13.316;2023-03-04T07:18:47;94352.84;;;-0.30;100.00
21588;BME280;10956;48.878;13.316;2023-03-04T07:21:14;94350.88;;;-0.28;100.00
21588;BME280;10956;48.878;13.316;2023-03-04T07:23:40;94355.66;;;-0.25;100.00
21588;BME280;10956;48.878;13.316;2023-03-04T07:26:05;94355.66;;;-0.25;100.00
21588;BME280;10956;48.878;13.316;2023-03-04T07:28:31;94353.88;;;-0.25;100.00
21588;BME280;10956;48.878;13.316;2023-03-04T07:31:10;94355.28;;;-0.22;100.00
21588;BME280;10956;48.878;13.316;2023-03-04T07:33:36;94346.50;;;-0.21;100.00
21588;BME280;10956;48.878;13.316;2023-03-04T07:36:01;94352.88;;;-0.17;100.00
21588;BME280;10956;48.878;13.316;2023-03-04T07:38:27;94351.69;;;-0.15;100.00
21588;BME280;10956;48.878;13.316;2023-03-04T07:40:56;94354.09;;;-0.13;100.00
21588;BME280;10956;48.878;13.316;2023-03-04T07:43:22;94350.91;;;-0.15;100.00
21588;BME280;10956;48.878;13.316;2023-03-04T07:45:47;94352.09;;;-0.11;100.00
21588;BME280;10956;48.878;13.316;2023-03-04T07:48:13;94350.91;;;-0.09;100.00
21588;BME280;10956;48.878;13.316;2023-03-04T07:50:38;94355.50;;;-0.04;100.00
21588;BME280;10956;48.878;13.316;2023-03-04T07:53:03;94352.53;;;-0.01;100.00
21588;BME280;10956;48.878;13.316;2023-03-04T07:55:29;94354.50;;;-0.03;100.00
21588;BME280;10956;48.878;13.316;2023-03-04T07:57:56;94354.72;;;0.02;100.00
21588;BME280;10956;48.878;13.316;2023-03-04T08:00:22;94357.72;;;0.06;100.00
21588;BME280;10956;48.878;13.316;2023-03-04T08:02:48;94350.94;;;0.11;100.00
21588;BME280;10956;48.878;13.316;2023-03-04T08:05:13;94348.97;;;0.13;100.00
21588;BME280;10956;48.878;13.316;2023-03-04T08:07:38;94345.38;;;0.14;100.00
21588;BME280;10956;48.878;13.316;2023-03-04T08:10:04;94342.59;;;0.16;100.00
21588;BME280;10956;48.878;13.316;2023-03-04T08:12:30;94349.38;;;0.17;100.00
21588;BME280;10956;48.878;13.316;2023-03-04T08:14:55;94356.53;;;0.21;100.00
21588;BME280;10956;48.878;13.316;2023-03-04T08:17:20;94346.97;;;0.28;100.00
21588;BME280;10956;48.878;13.316;2023-03-04T08:19:46;94351.38;;;0.21;100.00
21588;BME280;10956;48.878;13.316;2023-03-04T08:22:12;94347.78;;;0.22;100.00
21588;BME280;10956;48.878;13.316;2023-03-04T08:24:38;94343.41;;;0.29;100.00
21588;BME280;10956;48.878;13.316;2023-03-04T08:27:03;94347.59;;;0.37;100.00
21588;BME280;10956;48.878;13.316;2023-03-04T08:29:29;94342.19;;;0.39;100.00
21588;BME280;10956;48.878;13.316;2023-03-04T08:31:54;94345.78;;;0.38;100.00
21588;BME280;10956;48.878;13.316;2023-03-04T08:34:23;94347.00;;;0.42;100.00
21588;BME280;10956;48.878;13.316;2023-03-04T08:36:48;94340.41;;;0.46;100.00
21588;BME280;10956;48.878;13.316;2023-03-04T08:39:15;94350.97;;;0.44;100.00
21588;BME280;10956;48.878;13.316;2023-03-04T08:41:41;94347.78;;;0.49;100.00
21588;BME280;10956;48.878;13.316;2023-03-04T08:44:07;94350.19;;;0.50;100.00
21588;BME280;10956;48.878;13.316;2023-03-04T08:46:35;94350.56;;;0.54;100.00
21588;BME280;10956;48.878;13.316;2023-03-04T08:49:00;94341.00;;;0.61;100.00
21588;BME280;10956;48.878;13.316;2023-03-04T08:51:25;94348.97;;;0.59;100.00
21588;BME280;10956;48.878;13.316;2023-03-04T08:53:51;94352.97;;;0.62;100.00
21588;BME280;10956;48.878;13.316;2023-03-04T08:56:17;94345.78;;;0.64;100.00
21588;BME280;10956;48.878;13.316;2023-03-04T08:58:42;94351.75;;;0.71;100.00
21588;BME280;10956;48.878;13.316;2023-03-04T09:01:10;94349.78;;;0.73;100.00
21588;BME280;10956;48.878;13.316;2023-03-04T09:03:36;94350.97;;;0.77;100.00
21588;BME280;10956;48.878;13.316;2023-03-04T09:06:02;94356.16;;;0.84;100.00
21588;BME280;10956;48.878;13.316;2023-03-04T09:08:28;94358.91;;;0.95;100.00
21588;BME280;10956;48.878;13.316;2023-03-04T09:10:54;94356.13;;;0.90;100.00
21588;BME280;10956;48.878;13.316;2023-03-04T09:13:21;94355.72;;;1.00;100.00
21588;BME280;10956;48.878;13.316;2023-03-04T09:15:49;94358.31;;;1.07;100.00
21588;BME280;10956;48.878;13.316;2023-03-04T09:18:15;94354.06;;;1.19;100.00
21588;BME280;10956;48.878;13.316;2023-03-04T09:20:41;94358.63;;;1.30;100.00
21588;BME280;10956;48.878;13.316;2023-03-04T09:23:07;94364.03;;;1.35;99.37
21588;BME280;10956;48.878;13.316;2023-03-04T09:25:34;94357.59;;;1.44;99.23
21588;BME280;10956;48.878;13.316;2023-03-04T09:27:59;94358.19;;;1.46;98.97
21588;BME280;10956;48.878;13.316;2023-03-04T09:30:24;94360.34;;;1.56;98.99
21588;BME280;10956;48.878;13.316;2023-03-04T09:32:50;94359.56;;;1.55;98.70
21588;BME280;10956;48.878;13.316;2023-03-04T09:35:15;94350.34;;;1.59;98.56
21588;BME280;10956;48.878;13.316;2023-03-04T09:37:41;94355.94;;;1.63;98.26
21588;BME280;10956;48.878;13.316;2023-03-04T09:40:07;94351.72;;;1.69;98.35
21588;BME280;10956;48.878;13.316;2023-03-04T09:42:36;94356.09;;;1.68;98.13
21588;BME280;10956;48.878;13.316;2023-03-04T09:45:04;94351.88;;;1.74;97.73
21588;BME280;10956;48.878;13.316;2023-03-04T09:47:33;94346.44;;;1.82;97.84
21588;BME280;10956;48.878;13.316;2023-03-04T09:50:06;94339.78;;;1.92;97.39
21588;BME280;10956;48.878;13.316;2023-03-04T09:53:18;94342.53;;;2.04;97.26
21588;BME280;10956;48.878;13.316;2023-03-04T09:55:49;94340.09;;;2.09;96.76
21588;BME280;10956;48.878;13.316;2023-03-04T09:58:26;94341.50;;;2.05;96.50
21588;BME280;10956;48.878;13.316;2023-03-04T10:03:27;94334.44;;;2.19;96.58
21588;BME280;10956;48.878;13.316;2023-03-04T10:06:04;94338.56;;;2.26;96.51
21588;BME280;10956;48.878;13.316;2023-03-04T10:11:34;94331.94;;;2.31;96.39
21588;BME280;10956;48.878;13.316;2023-03-04T10:16:34;94334.81;;;2.22;97.52
21588;BME280;10956;48.878;13.316;2023-03-04T10:21:41;94321.44;;;2.44;97.93
21588;BME280;10956;48.878;13.316;2023-03-04T10:24:13;94326.22;;;2.47;99.78
21588;BME280;10956;48.878;13.316;2023-03-04T10:26:44;94322.63;;;2.48;100.00
21588;BME280;10956;48.878;13.316;2023-03-04T10:29:18;94320.75;;;2.55;100.00
21588;BME280;10956;48.878;13.316;2023-03-04T10:31:45;94315.28;;;2.63;100.00
21588;BME280;10956;48.878;13.316;2023-03-04T10:34:12;94314.81;;;2.73;100.00
21588;BME280;10956;48.878;13.316;2023-03-04T10:39:41;94310.91;;;2.82;100.00
21588;BME280;10956;48.878;13.316;2023-03-04T10:44:41;94307.09;;;2.84;100.00
21588;BME280;10956;48.878;13.316;2023-03-04T10:47:10;94300.28;;;2.83;100.00
21588;BME280;10956;48.878;13.316;2023-03-04T10:49:50;94302.88;;;2.83;100.00
21588;BME280;10956;48.878;13.316;2023-03-04T10:52:38;94296.09;;;2.82;100.00
21588;BME280;10956;48.878;13.316;2023-03-04T10:55:21;94292.25;;;2.85;100.00
21588;BME280;10956;48.878;13.316;2023-03-04T10:57:50;94288.66;;;2.86;100.00
21588;BME280;10956;48.878;13.316;2023-03-04T11:02:42;94291.84;;;2.88;100.00
21588;BME280;10956;48.878;13.316;2023-03-04T11:07:42;94288.88;;;3.03;100.00
21588;BME280;10956;48.878;13.316;2023-03-04T11:10:51;94283.69;;;3.03;100.00
21588;BME280;10956;48.878;13.316;2023-03-04T11:15:25;94282.81;;;3.09;100.00
21588;BME280;10956;48.878;13.316;2023-03-04T11:18:02;94278.75;;;3.13;100.00
21588;BME280;10956;48.878;13.316;2023-03-04T11:20:40;94274.78;;;3.10;100.00
21588;BME280;10956;48.878;13.316;2023-03-04T11:23:15;94264.38;;;3.10;100.00
21588;BME280;10956;48.878;13.316;2023-03-04T11:25:43;94273.97;;;3.10;100.00
21588;BME280;10956;48.878;13.316;2023-03-04T11:28:17;94283.59;;;3.09;100.00
21588;BME280;10956;48.878;13.316;2023-03-04T11:30:49;94273.56;;;3.13;100.00
21588;BME280;10956;48.878;13.316;2023-03-04T11:38:40;94276.00;;;3.08;100.00
21588;BME280;10956;48.878;13.316;2023-03-04T11:41:13;94273.41;;;3.08;100.00
21588;BME280;10956;48.878;13.316;2023-03-04T11:43:42;94268.41;;;3.06;100.00
21588;BME280;10956;48.878;13.316;2023-03-04T12:05:40;94267.03;;;2.85;100.00
21588;BME280;10956;48.878;13.316;2023-03-04T12:11:08;94271.50;;;2.60;100.00
21588;BME280;10956;48.878;13.316;2023-03-04T12:14:12;94259.75;;;2.51;100.00
21588;BME280;10956;48.878;13.316;2023-03-04T12:17:02;94260.63;;;2.45;100.00
21588;BME280;10956;48.878;13.316;2023-03-04T12:22:32;94263.06;;;2.40;100.00
21588;BME280;10956;48.878;13.316;2023-03-04T12:33:12;94259.09;;;2.12;100.00
21588;BME280;10956;48.878;13.316;2023-03-04T12:41:33;94255.50;;;1.82;99.96
21588;BME280;10956;48.878;13.316;2023-03-04T12:52:09;94254.81;;;1.93;99.39
21588;BME280;10956;48.878;13.316;2023-03-04T12:54:43;94253.81;;;1.94;98.96
21588;BME280;10956;48.878;13.316;2023-03-04T12:57:13;94256.97;;;2.03;98.15
21588;BME280;10956;48.878;13.316;2023-03-04T12:59:43;94252.97;;;2.00;97.38
21588;BME280;10956;48.878;13.316;2023-03-04T13:02:38;94252.66;;;1.90;96.45
21588;BME280;10956;48.878;13.316;2023-03-04T13:10:28;94247.72;;;1.82;96.73
21588;BME280;10956;48.878;13.316;2023-03-04T13:13:00;94256.69;;;1.86;96.12
21588;BME280;10956;48.878;13.316;2023-03-04T13:15:34;94257.09;;;1.83;95.63
21588;BME280;10956;48.878;13.316;2023-03-04T13:18:38;94248.09;;;1.85;95.32
21588;BME280;10956;48.878;13.316;2023-03-04T13:23:38;94247.41;;;1.97;93.63
21588;BME280;10956;48.878;13.316;2023-03-04T13:28:45;94253.06;;;1.87;94.50
21588;BME280;10956;48.878;13.316;2023-03-04T13:31:18;94250.47;;;1.87;94.67
21588;BME280;10956;48.878;13.316;2023-03-04T13:36:52;94254.09;;;2.11;93.09
21588;BME280;10956;48.878;13.316;2023-03-04T13:41:49;94254.25;;;2.41;91.60
21588;BME280;10956;48.878;13.316;2023-03-04T13:44:36;94255.16;;;2.53;90.99
21588;BME280;10956;48.878;13.316;2023-03-04T13:47:21;94251.75;;;2.52;90.48
21588;BME280;10956;48.878;13.316;2023-03-04T13:50:21;94246.72;;;2.33;90.63
21588;BME280;10956;48.878;13.316;2023-03-04T13:52:47;94253.63;;;2.20;90.49
21588;BME280;10956;48.878;13.316;2023-03-04T13:55:31;94251.59;;;2.22;90.91
21588;BME280;10956;48.878;13.316;2023-03-04T13:57:57;94246.41;;;2.22;90.87
21588;BME280;10956;48.878;13.316;2023-03-04T14:00:23;94260.09;;;2.11;90.65
21588;BME280;10956;48.878;13.316;2023-03-04T14:02:49;94245.19;;;2.00;91.06
21588;BME280;10956;48.878;13.316;2023-03-04T14:05:14;94248.28;;;1.84;91.68
21588;BME280;10956;48.878;13.316;2023-03-04T14:07:40;94244.34;;;1.75;91.99
21588;BME280;10956;48.878;13.316;2023-03-04T14:10:20;94253.94;;;1.74;91.88
21588;BME280;10956;48.878;13.316;2023-03-04T14:12:50;94244.09;;;1.83;91.85
21588;BME280;10956;48.878;13.316;2023-03-04T14:15:26;94250.13;;;1.77;91.63
21588;BME280;10956;48.878;13.316;2023-03-04T14:18:00;94258.34;;;1.74;91.36
21588;BME280;10956;48.878;13.316;2023-03-04T14:20:31;94254.44;;;1.58;91.69
21588;BME280;10956;48.878;13.316;2023-03-04T14:22:59;94243.59;;;1.68;91.97
21588;BME280;10956;48.878;13.316;2023-03-04T14:25:29;94251.06;;;1.57;90.97